USY099P EHAM-LIMC
Flight info
| Callsign | USY099P |
|---|---|
| Flight time | 1h 12m |
| Altitude | 35000 |
| Route | LOPIK N852 GESLO DCT LIMGO DCT SUTAL DCT GTQ DCT OBORN DCT DEVDI DCT BASGO/N0408F290 Z424 AKASU/N0353F190 Z424 RIXUV |
| Aircraft | A343/H-SDE2E3FGHIJ4J5M1RWXY/LB1D1 |
Departure
| Time | 2026-05-07 11:25 |
|---|---|
| Airport | Amsterdam Airport Schiphol (EHAM) |
Arrival
| Time | 2026-05-07 12:38 |
|---|---|
| Airport | Milan Malpensa International Airport (LIMC) |
| Time | Latitude | Longitude | Altitude | Speed | Heading |
|---|---|---|---|---|---|
| 2026-05-07 10:54 | 52.29558 | 4.76300 | 3 ft | 0 kts | 148° |
| 2026-05-07 11:15 | 52.29559 | 4.76299 | 3 ft | 1 kts | 148° |
| 2026-05-07 11:15 | 52.29580 | 4.76279 | 4 ft | 4 kts | 148° |
| 2026-05-07 11:15 | 52.29604 | 4.76259 | 4 ft | 4 kts | 163° |
| 2026-05-07 11:16 | 52.29629 | 4.76253 | 5 ft | 4 kts | 193° |
| 2026-05-07 11:16 | 52.29649 | 4.76270 | 5 ft | 2 kts | 237° |
| 2026-05-07 11:16 | 52.29650 | 4.76272 | 5 ft | 0 kts | 238° |
| 2026-05-07 11:20 | 52.29643 | 4.76255 | 4 ft | 8 kts | 238° |
| 2026-05-07 11:20 | 52.29597 | 4.76134 | 3 ft | 15 kts | 238° |
| 2026-05-07 11:20 | 52.29538 | 4.75974 | 3 ft | 20 kts | 241° |
| 2026-05-07 11:21 | 52.29485 | 4.75758 | 3 ft | 19 kts | 245° |
| 2026-05-07 11:21 | 52.29435 | 4.75595 | 3 ft | 9 kts | 268° |
| 2026-05-07 11:21 | 52.29480 | 4.75506 | 3 ft | 20 kts | 326° |
| 2026-05-07 11:21 | 52.29598 | 4.75382 | 3 ft | 14 kts | 328° |
| 2026-05-07 11:22 | 52.29687 | 4.75300 | 3 ft | 16 kts | 339° |
| 2026-05-07 11:22 | 52.29800 | 4.75254 | 3 ft | 18 kts | 336° |
| 2026-05-07 11:22 | 52.29890 | 4.75108 | 4 ft | 19 kts | 310° |
| 2026-05-07 11:22 | 52.29981 | 4.74934 | 3 ft | 21 kts | 310° |
| 2026-05-07 11:23 | 52.30083 | 4.74746 | 6 ft | 22 kts | 312° |
| 2026-05-07 11:23 | 52.30176 | 4.74574 | 14 ft | 20 kts | 311° |
| 2026-05-07 11:23 | 52.30274 | 4.74394 | 14 ft | 20 kts | 311° |
| 2026-05-07 11:23 | 52.30365 | 4.74208 | 4 ft | 19 kts | 295° |
| 2026-05-07 11:24 | 52.30315 | 4.74028 | 3 ft | 20 kts | 219° |
| 2026-05-07 11:24 | 52.30218 | 4.73911 | 3 ft | 18 kts | 220° |
| 2026-05-07 11:24 | 52.30200 | 4.73770 | 2 ft | 9 kts | 302° |
| 2026-05-07 11:24 | 52.30240 | 4.73745 | 1 ft | 9 kts | 356° |
| 2026-05-07 11:25 | 52.30367 | 4.73757 | 0 ft | 40 kts | 5° |
| 2026-05-07 11:25 | 52.30903 | 4.73799 | 3 ft | 112 kts | 3° |
| 2026-05-07 11:25 | 52.31869 | 4.73890 | 162 ft | 156 kts | 3° |
| 2026-05-07 11:25 | 52.32984 | 4.73974 | 893 ft | 164 kts | 2° |
| 2026-05-07 11:26 | 52.34141 | 4.74300 | 1609 ft | 180 kts | 20° |
| 2026-05-07 11:26 | 52.35401 | 4.75182 | 2105 ft | 213 kts | 24° |
| 2026-05-07 11:26 | 52.36707 | 4.76401 | 3062 ft | 222 kts | 41° |
| 2026-05-07 11:26 | 52.37466 | 4.78547 | 4315 ft | 223 kts | 79° |
| 2026-05-07 11:27 | 52.37328 | 4.81095 | 5457 ft | 230 kts | 107° |
| 2026-05-07 11:27 | 52.36527 | 4.83363 | 6605 ft | 233 kts | 134° |
| 2026-05-07 11:27 | 52.35159 | 4.84803 | 7586 ft | 244 kts | 161° |
| 2026-05-07 11:27 | 52.33405 | 4.85159 | 8327 ft | 263 kts | 181° |
| 2026-05-07 11:28 | 52.31542 | 4.85063 | 9319 ft | 271 kts | 182° |
| 2026-05-07 11:28 | 52.29635 | 4.84951 | 10323 ft | 279 kts | 182° |
| 2026-05-07 11:28 | 52.27616 | 4.84876 | 10846 ft | 302 kts | 180° |
| 2026-05-07 11:28 | 52.25490 | 4.85477 | 11390 ft | 321 kts | 158° |
| 2026-05-07 11:29 | 52.23576 | 4.87436 | 12227 ft | 329 kts | 142° |
| 2026-05-07 11:29 | 52.21765 | 4.89794 | 13078 ft | 336 kts | 141° |
| 2026-05-07 11:29 | 52.19949 | 4.92193 | 13926 ft | 343 kts | 141° |
| 2026-05-07 11:29 | 52.18076 | 4.94651 | 14769 ft | 347 kts | 141° |
| 2026-05-07 11:30 | 52.16175 | 4.97131 | 15616 ft | 352 kts | 142° |
| 2026-05-07 11:30 | 52.14240 | 4.99644 | 16424 ft | 358 kts | 142° |
| 2026-05-07 11:30 | 52.12283 | 5.02180 | 17281 ft | 362 kts | 142° |
| 2026-05-07 11:30 | 52.10257 | 5.04636 | 18180 ft | 365 kts | 149° |
| 2026-05-07 11:31 | 52.07931 | 5.06316 | 18966 ft | 367 kts | 163° |
| 2026-05-07 11:31 | 52.05460 | 5.07473 | 19701 ft | 371 kts | 166° |
| 2026-05-07 11:31 | 52.02987 | 5.08552 | 20443 ft | 375 kts | 166° |
| 2026-05-07 11:31 | 52.00455 | 5.09660 | 21181 ft | 379 kts | 166° |
| 2026-05-07 11:32 | 51.95319 | 5.11933 | 22643 ft | 386 kts | 165° |
| 2026-05-07 11:32 | 51.92717 | 5.13091 | 23359 ft | 389 kts | 165° |
| 2026-05-07 11:32 | 51.90092 | 5.14265 | 23960 ft | 394 kts | 165° |
| 2026-05-07 11:33 | 51.87432 | 5.15450 | 24516 ft | 397 kts | 165° |
| 2026-05-07 11:33 | 51.84753 | 5.16640 | 25080 ft | 401 kts | 165° |
| 2026-05-07 11:33 | 51.82085 | 5.17822 | 25639 ft | 404 kts | 166° |
| 2026-05-07 11:33 | 51.79364 | 5.19027 | 26195 ft | 407 kts | 166° |
| 2026-05-07 11:34 | 51.76620 | 5.20241 | 26742 ft | 410 kts | 166° |
| 2026-05-07 11:34 | 51.73855 | 5.21461 | 27275 ft | 413 kts | 166° |
| 2026-05-07 11:34 | 51.71075 | 5.22687 | 27796 ft | 416 kts | 166° |
| 2026-05-07 11:34 | 51.68269 | 5.23923 | 28302 ft | 419 kts | 166° |
| 2026-05-07 11:35 | 51.65444 | 5.25165 | 28796 ft | 422 kts | 166° |
| 2026-05-07 11:35 | 51.62604 | 5.26412 | 29288 ft | 425 kts | 166° |
| 2026-05-07 11:35 | 51.59737 | 5.27670 | 29773 ft | 428 kts | 166° |
| 2026-05-07 11:35 | 51.56845 | 5.28937 | 30227 ft | 431 kts | 166° |
| 2026-05-07 11:36 | 51.53934 | 5.30210 | 30600 ft | 434 kts | 166° |
| 2026-05-07 11:36 | 51.51045 | 5.31472 | 30962 ft | 437 kts | 166° |
| 2026-05-07 11:36 | 51.48096 | 5.32759 | 31344 ft | 440 kts | 166° |
| 2026-05-07 11:36 | 51.45135 | 5.34050 | 31738 ft | 442 kts | 166° |
| 2026-05-07 11:37 | 51.42170 | 5.35341 | 32201 ft | 442 kts | 166° |
| 2026-05-07 11:37 | 51.39208 | 5.36629 | 32710 ft | 441 kts | 166° |
| 2026-05-07 11:37 | 51.36258 | 5.37912 | 33234 ft | 439 kts | 166° |
| 2026-05-07 11:37 | 51.33311 | 5.39196 | 33727 ft | 438 kts | 166° |
| 2026-05-07 11:38 | 51.30373 | 5.40475 | 34182 ft | 437 kts | 166° |
| 2026-05-07 11:38 | 51.27442 | 5.41749 | 34564 ft | 436 kts | 166° |
| 2026-05-07 11:38 | 51.24505 | 5.42997 | 34910 ft | 437 kts | 167° |
| 2026-05-07 11:38 | 51.21531 | 5.44076 | 35040 ft | 435 kts | 169° |
| 2026-05-07 11:39 | 51.18615 | 5.45017 | 35056 ft | 420 kts | 170° |
| 2026-05-07 11:39 | 51.12878 | 5.47090 | 35054 ft | 433 kts | 167° |
| 2026-05-07 11:40 | 51.06949 | 5.49717 | 35050 ft | 452 kts | 165° |
| 2026-05-07 11:40 | 51.00826 | 5.52477 | 35052 ft | 469 kts | 166° |
| 2026-05-07 11:41 | 50.94512 | 5.55260 | 35054 ft | 470 kts | 166° |
| 2026-05-07 11:41 | 50.88222 | 5.57990 | 35064 ft | 468 kts | 166° |
| 2026-05-07 11:42 | 50.81936 | 5.60700 | 35063 ft | 468 kts | 166° |
| 2026-05-07 11:42 | 50.75653 | 5.63403 | 35055 ft | 468 kts | 166° |
| 2026-05-07 11:43 | 50.69334 | 5.66116 | 35048 ft | 471 kts | 166° |
| 2026-05-07 11:43 | 50.63019 | 5.68909 | 35052 ft | 472 kts | 165° |
| 2026-05-07 11:44 | 50.56772 | 5.71859 | 35061 ft | 472 kts | 163° |
| 2026-05-07 11:44 | 50.50608 | 5.75427 | 35045 ft | 472 kts | 159° |
| 2026-05-07 11:45 | 50.44484 | 5.79216 | 35048 ft | 473 kts | 160° |
| 2026-05-07 11:45 | 50.38327 | 5.82913 | 35061 ft | 473 kts | 160° |
| 2026-05-07 11:46 | 50.32156 | 5.86523 | 35057 ft | 473 kts | 160° |
| 2026-05-07 11:46 | 50.25973 | 5.90105 | 35049 ft | 473 kts | 161° |
| 2026-05-07 11:47 | 50.19780 | 5.93684 | 35050 ft | 474 kts | 161° |
| 2026-05-07 11:47 | 50.13577 | 5.97264 | 35051 ft | 475 kts | 160° |
| 2026-05-07 11:48 | 50.07372 | 6.00837 | 35037 ft | 476 kts | 160° |
| 2026-05-07 11:48 | 50.01212 | 6.04615 | 35040 ft | 476 kts | 159° |
| 2026-05-07 11:49 | 49.95124 | 6.08526 | 35042 ft | 476 kts | 158° |
| 2026-05-07 11:49 | 49.88983 | 6.12435 | 35047 ft | 476 kts | 159° |
| 2026-05-07 11:50 | 49.82842 | 6.16294 | 35046 ft | 476 kts | 159° |
| 2026-05-07 11:50 | 49.76695 | 6.20129 | 35045 ft | 476 kts | 159° |
| 2026-05-07 11:51 | 49.70538 | 6.23960 | 35047 ft | 477 kts | 159° |
| 2026-05-07 11:51 | 49.64386 | 6.27778 | 35048 ft | 476 kts | 159° |
| 2026-05-07 11:52 | 49.58240 | 6.31670 | 35048 ft | 476 kts | 158° |
| 2026-05-07 11:52 | 49.52171 | 6.35615 | 35047 ft | 477 kts | 158° |
| 2026-05-07 11:53 | 49.46054 | 6.39578 | 35046 ft | 477 kts | 158° |
| 2026-05-07 11:53 | 49.40996 | 6.42956 | 35044 ft | 477 kts | 157° |
| 2026-05-07 11:55 | 49.35751 | 6.46569 | 35048 ft | 477 kts | 157° |
| 2026-05-07 11:56 | 49.30712 | 6.50032 | 35044 ft | 477 kts | 157° |
| 2026-05-07 11:56 | 49.24640 | 6.54165 | 35045 ft | 477 kts | 157° |
| 2026-05-07 11:57 | 49.18560 | 6.58273 | 35045 ft | 477 kts | 157° |
| 2026-05-07 11:57 | 49.12474 | 6.62370 | 35045 ft | 477 kts | 157° |
| 2026-05-07 11:58 | 49.06395 | 6.66468 | 35041 ft | 478 kts | 157° |
| 2026-05-07 11:58 | 49.00325 | 6.70638 | 35045 ft | 479 kts | 157° |
| 2026-05-07 11:59 | 48.94292 | 6.74783 | 35045 ft | 479 kts | 157° |
| 2026-05-07 11:59 | 48.88209 | 6.78936 | 35041 ft | 479 kts | 157° |
| 2026-05-07 12:00 | 48.82125 | 6.83070 | 35043 ft | 479 kts | 158° |
| 2026-05-07 12:00 | 48.76039 | 6.87190 | 35050 ft | 479 kts | 158° |
| 2026-05-07 12:01 | 48.69951 | 6.91303 | 35048 ft | 479 kts | 158° |
| 2026-05-07 12:01 | 48.63855 | 6.95411 | 35045 ft | 479 kts | 158° |
| 2026-05-07 12:02 | 48.57762 | 6.99505 | 35044 ft | 479 kts | 158° |
| 2026-05-07 12:02 | 48.51944 | 7.03404 | 35049 ft | 479 kts | 158° |
| 2026-05-07 12:03 | 48.45849 | 7.07481 | 35052 ft | 479 kts | 158° |
| 2026-05-07 12:03 | 48.39739 | 7.11556 | 35046 ft | 479 kts | 158° |
| 2026-05-07 12:04 | 48.33639 | 7.15612 | 35047 ft | 479 kts | 158° |
| 2026-05-07 12:04 | 48.27537 | 7.19660 | 35046 ft | 479 kts | 158° |
| 2026-05-07 12:05 | 48.21430 | 7.23701 | 35044 ft | 479 kts | 158° |
| 2026-05-07 12:05 | 48.15324 | 7.27732 | 35048 ft | 479 kts | 158° |
| 2026-05-07 12:06 | 48.09257 | 7.31726 | 35048 ft | 479 kts | 158° |
| 2026-05-07 12:06 | 48.03145 | 7.35738 | 35048 ft | 479 kts | 158° |
| 2026-05-07 12:07 | 47.97028 | 7.39743 | 35041 ft | 479 kts | 159° |
| 2026-05-07 12:07 | 47.90918 | 7.43732 | 35045 ft | 480 kts | 159° |
| 2026-05-07 12:08 | 47.84798 | 7.47719 | 35040 ft | 480 kts | 159° |
| 2026-05-07 12:08 | 47.78711 | 7.51674 | 35044 ft | 482 kts | 159° |
| 2026-05-07 12:09 | 47.72541 | 7.55674 | 35049 ft | 482 kts | 159° |
| 2026-05-07 12:09 | 47.66413 | 7.59654 | 35048 ft | 480 kts | 159° |
| 2026-05-07 12:10 | 47.60284 | 7.63619 | 35046 ft | 480 kts | 159° |
| 2026-05-07 12:10 | 47.54159 | 7.67572 | 35037 ft | 480 kts | 159° |
| 2026-05-07 12:11 | 47.48022 | 7.71522 | 35042 ft | 481 kts | 159° |
| 2026-05-07 12:11 | 47.41880 | 7.75465 | 35038 ft | 481 kts | 159° |
| 2026-05-07 12:12 | 47.35775 | 7.79376 | 35034 ft | 481 kts | 159° |
| 2026-05-07 12:12 | 47.29632 | 7.83300 | 35023 ft | 481 kts | 159° |
| 2026-05-07 12:13 | 47.23480 | 7.87219 | 35027 ft | 482 kts | 159° |
| 2026-05-07 12:13 | 47.17324 | 7.91132 | 35023 ft | 482 kts | 159° |
| 2026-05-07 12:14 | 47.11168 | 7.95037 | 35024 ft | 482 kts | 159° |
| 2026-05-07 12:14 | 47.08085 | 7.96987 | 34893 ft | 482 kts | 160° |
| 2026-05-07 12:14 | 47.05006 | 7.98933 | 34779 ft | 482 kts | 160° |
| 2026-05-07 12:15 | 46.98849 | 8.02817 | 34449 ft | 480 kts | 160° |
| 2026-05-07 12:15 | 46.95779 | 8.04751 | 33760 ft | 481 kts | 160° |
| 2026-05-07 12:15 | 46.92693 | 8.06689 | 32828 ft | 483 kts | 159° |
| 2026-05-07 12:15 | 46.89613 | 8.08621 | 32074 ft | 480 kts | 159° |
| 2026-05-07 12:16 | 46.86541 | 8.10549 | 31342 ft | 481 kts | 159° |
| 2026-05-07 12:16 | 46.83463 | 8.12476 | 30706 ft | 481 kts | 158° |
| 2026-05-07 12:16 | 46.80379 | 8.14404 | 30242 ft | 481 kts | 158° |
| 2026-05-07 12:16 | 46.77313 | 8.16321 | 29687 ft | 479 kts | 158° |
| 2026-05-07 12:17 | 46.74281 | 8.18214 | 29131 ft | 483 kts | 158° |
| 2026-05-07 12:17 | 46.71182 | 8.20145 | 28716 ft | 484 kts | 158° |
| 2026-05-07 12:17 | 46.68101 | 8.22065 | 28192 ft | 479 kts | 158° |
| 2026-05-07 12:17 | 46.65050 | 8.23965 | 27600 ft | 475 kts | 159° |
| 2026-05-07 12:18 | 46.62019 | 8.25849 | 27070 ft | 470 kts | 159° |
| 2026-05-07 12:18 | 46.59009 | 8.27717 | 26606 ft | 468 kts | 159° |
| 2026-05-07 12:18 | 46.56021 | 8.29568 | 26047 ft | 465 kts | 159° |
| 2026-05-07 12:18 | 46.53067 | 8.31395 | 25526 ft | 461 kts | 158° |
| 2026-05-07 12:19 | 46.50114 | 8.33219 | 25045 ft | 458 kts | 158° |
| 2026-05-07 12:19 | 46.47206 | 8.35015 | 24502 ft | 453 kts | 158° |
| 2026-05-07 12:19 | 46.44303 | 8.36805 | 24022 ft | 451 kts | 159° |
| 2026-05-07 12:19 | 46.41429 | 8.38574 | 23465 ft | 448 kts | 158° |
| 2026-05-07 12:20 | 46.38573 | 8.40333 | 22901 ft | 443 kts | 158° |
| 2026-05-07 12:20 | 46.35737 | 8.42076 | 22403 ft | 442 kts | 158° |
| 2026-05-07 12:20 | 46.32926 | 8.43800 | 21922 ft | 436 kts | 158° |
| 2026-05-07 12:20 | 46.30135 | 8.45510 | 21412 ft | 437 kts | 159° |
| 2026-05-07 12:21 | 46.27283 | 8.46891 | 20934 ft | 428 kts | 169° |
| 2026-05-07 12:21 | 46.24358 | 8.47665 | 20433 ft | 428 kts | 173° |
| 2026-05-07 12:21 | 46.21408 | 8.48223 | 19966 ft | 425 kts | 175° |
| 2026-05-07 12:21 | 46.18483 | 8.48659 | 19478 ft | 422 kts | 176° |
| 2026-05-07 12:22 | 46.15555 | 8.49042 | 19035 ft | 419 kts | 176° |
| 2026-05-07 12:22 | 46.12659 | 8.49442 | 18514 ft | 419 kts | 174° |
| 2026-05-07 12:22 | 46.09868 | 8.50400 | 17996 ft | 415 kts | 164° |
| 2026-05-07 12:22 | 46.07130 | 8.51740 | 17499 ft | 415 kts | 162° |
| 2026-05-07 12:23 | 46.04434 | 8.53143 | 17004 ft | 410 kts | 161° |
| 2026-05-07 12:23 | 46.01743 | 8.54569 | 16738 ft | 412 kts | 161° |
| 2026-05-07 12:23 | 45.99083 | 8.55986 | 16633 ft | 399 kts | 161° |
| 2026-05-07 12:23 | 45.96538 | 8.57350 | 16495 ft | 381 kts | 161° |
| 2026-05-07 12:24 | 45.94062 | 8.58677 | 16322 ft | 382 kts | 161° |
| 2026-05-07 12:24 | 45.91598 | 8.59995 | 16238 ft | 383 kts | 161° |
| 2026-05-07 12:24 | 45.89222 | 8.61617 | 15781 ft | 378 kts | 148° |
| 2026-05-07 12:24 | 45.87115 | 8.63902 | 15158 ft | 379 kts | 142° |
| 2026-05-07 12:25 | 45.85089 | 8.66296 | 14706 ft | 375 kts | 141° |
| 2026-05-07 12:25 | 45.83073 | 8.68675 | 14304 ft | 375 kts | 142° |
| 2026-05-07 12:25 | 45.81054 | 8.71040 | 13927 ft | 372 kts | 142° |
| 2026-05-07 12:25 | 45.79045 | 8.73378 | 13583 ft | 372 kts | 142° |
| 2026-05-07 12:26 | 45.77040 | 8.75686 | 13152 ft | 368 kts | 144° |
| 2026-05-07 12:26 | 45.74924 | 8.77600 | 12845 ft | 351 kts | 152° |
| 2026-05-07 12:26 | 45.72827 | 8.79230 | 12605 ft | 335 kts | 153° |
| 2026-05-07 12:26 | 45.70840 | 8.80749 | 12378 ft | 320 kts | 153° |
| 2026-05-07 12:27 | 45.68908 | 8.82226 | 12134 ft | 310 kts | 153° |
| 2026-05-07 12:27 | 45.67024 | 8.83667 | 11785 ft | 304 kts | 153° |
| 2026-05-07 12:27 | 45.65168 | 8.85087 | 11382 ft | 301 kts | 153° |
| 2026-05-07 12:27 | 45.63346 | 8.86483 | 11122 ft | 296 kts | 153° |
| 2026-05-07 12:28 | 45.61468 | 8.87709 | 10786 ft | 297 kts | 164° |
| 2026-05-07 12:28 | 45.59478 | 8.88386 | 10373 ft | 291 kts | 170° |
| 2026-05-07 12:28 | 45.57531 | 8.88904 | 9950 ft | 279 kts | 171° |
| 2026-05-07 12:28 | 45.55658 | 8.89395 | 9463 ft | 269 kts | 171° |
| 2026-05-07 12:29 | 45.53836 | 8.89877 | 8977 ft | 264 kts | 170° |
| 2026-05-07 12:29 | 45.52037 | 8.90357 | 8489 ft | 262 kts | 170° |
| 2026-05-07 12:29 | 45.50255 | 8.90836 | 7999 ft | 258 kts | 170° |
| 2026-05-07 12:29 | 45.48513 | 8.91312 | 7517 ft | 252 kts | 170° |
| 2026-05-07 12:30 | 45.46806 | 8.91774 | 7063 ft | 247 kts | 169° |
| 2026-05-07 12:30 | 45.45120 | 8.92230 | 6598 ft | 245 kts | 170° |
| 2026-05-07 12:30 | 45.43470 | 8.92676 | 6113 ft | 244 kts | 169° |
| 2026-05-07 12:30 | 45.41808 | 8.93127 | 5607 ft | 243 kts | 170° |
| 2026-05-07 12:31 | 45.40128 | 8.93526 | 5085 ft | 245 kts | 176° |
| 2026-05-07 12:31 | 45.38498 | 8.93081 | 4644 ft | 236 kts | 207° |
| 2026-05-07 12:31 | 45.37300 | 8.91556 | 4229 ft | 232 kts | 238° |
| 2026-05-07 12:31 | 45.36840 | 8.89403 | 3809 ft | 230 kts | 269° |
| 2026-05-07 12:32 | 45.37249 | 8.87230 | 3380 ft | 230 kts | 301° |
| 2026-05-07 12:32 | 45.38358 | 8.85562 | 3059 ft | 234 kts | 321° |
| 2026-05-07 12:32 | 45.39626 | 8.84192 | 2976 ft | 223 kts | 323° |
| 2026-05-07 12:32 | 45.40845 | 8.82928 | 2995 ft | 211 kts | 323° |
| 2026-05-07 12:33 | 45.43201 | 8.80500 | 3011 ft | 207 kts | 323° |
| 2026-05-07 12:33 | 45.44360 | 8.79302 | 2998 ft | 205 kts | 323° |
| 2026-05-07 12:33 | 45.45547 | 8.78259 | 2988 ft | 195 kts | 338° |
| 2026-05-07 12:34 | 45.46842 | 8.77798 | 2986 ft | 190 kts | 350° |
| 2026-05-07 12:34 | 45.48122 | 8.77475 | 2981 ft | 189 kts | 349° |
| 2026-05-07 12:34 | 45.49419 | 8.77119 | 2981 ft | 189 kts | 348° |
| 2026-05-07 12:34 | 45.50712 | 8.76753 | 2891 ft | 190 kts | 348° |
| 2026-05-07 12:35 | 45.52006 | 8.76384 | 2642 ft | 188 kts | 348° |
| 2026-05-07 12:35 | 45.53267 | 8.76038 | 2407 ft | 178 kts | 349° |
| 2026-05-07 12:35 | 45.54413 | 8.75723 | 2165 ft | 159 kts | 348° |
| 2026-05-07 12:35 | 45.55446 | 8.75438 | 1967 ft | 144 kts | 348° |
| 2026-05-07 12:36 | 45.56391 | 8.75178 | 1767 ft | 135 kts | 349° |
| 2026-05-07 12:36 | 45.57306 | 8.74926 | 1598 ft | 133 kts | 348° |
| 2026-05-07 12:36 | 45.58225 | 8.74686 | 1469 ft | 135 kts | 350° |
| 2026-05-07 12:36 | 45.59146 | 8.74434 | 1296 ft | 135 kts | 348° |
| 2026-05-07 12:37 | 45.60066 | 8.74178 | 1084 ft | 134 kts | 348° |
| 2026-05-07 12:37 | 45.60961 | 8.73923 | 904 ft | 132 kts | 348° |
| 2026-05-07 12:37 | 45.61854 | 8.73671 | 778 ft | 130 kts | 349° |
| 2026-05-07 12:37 | 45.62685 | 8.73449 | 751 ft | 104 kts | 348° |
| 2026-05-07 12:38 | 45.63209 | 8.73301 | 746 ft | 62 kts | 348° |
| 2026-05-07 12:38 | 45.63556 | 8.73197 | 750 ft | 41 kts | 342° |
| 2026-05-07 12:38 | 45.63774 | 8.72989 | 750 ft | 36 kts | 311° |
| 2026-05-07 12:38 | 45.63863 | 8.72813 | 752 ft | 17 kts | 305° |
| 2026-05-07 12:39 | 45.63929 | 8.72669 | 754 ft | 17 kts | 301° |
| 2026-05-07 12:39 | 45.63952 | 8.72527 | 753 ft | 16 kts | 263° |
| 2026-05-07 12:39 | 45.63929 | 8.72356 | 755 ft | 19 kts | 259° |
| 2026-05-07 12:39 | 45.63914 | 8.72150 | 749 ft | 24 kts | 267° |
| 2026-05-07 12:40 | 45.63900 | 8.71915 | 752 ft | 20 kts | 256° |
| 2026-05-07 12:40 | 45.63828 | 8.71820 | 755 ft | 14 kts | 181° |
| 2026-05-07 12:40 | 45.63723 | 8.71848 | 753 ft | 17 kts | 169° |
| 2026-05-07 12:40 | 45.63598 | 8.71882 | 754 ft | 20 kts | 169° |
| 2026-05-07 12:41 | 45.63458 | 8.71921 | 752 ft | 22 kts | 169° |
| 2026-05-07 12:41 | 45.63299 | 8.71964 | 753 ft | 24 kts | 169° |
| 2026-05-07 12:41 | 45.63124 | 8.72009 | 753 ft | 27 kts | 169° |
| 2026-05-07 12:41 | 45.62936 | 8.72061 | 752 ft | 28 kts | 168° |
| 2026-05-07 12:42 | 45.62743 | 8.72117 | 753 ft | 29 kts | 168° |
| 2026-05-07 12:42 | 45.62566 | 8.72167 | 751 ft | 23 kts | 168° |
| 2026-05-07 12:42 | 45.62415 | 8.72208 | 754 ft | 22 kts | 169° |
| 2026-05-07 12:42 | 45.62280 | 8.72245 | 752 ft | 15 kts | 168° |
| 2026-05-07 12:43 | 45.62213 | 8.72219 | 751 ft | 9 kts | 244° |
| 2026-05-07 12:43 | 45.62195 | 8.72115 | 755 ft | 12 kts | 256° |
| 2026-05-07 12:43 | 45.62173 | 8.72000 | 754 ft | 10 kts | 245° |
| 2026-05-07 12:43 | 45.62155 | 8.71933 | 756 ft | 11 kts | 255° |
| 2026-05-07 12:44 | 45.62145 | 8.71860 | 754 ft | 4 kts | 259° |
| 2026-05-07 12:44 | 45.62141 | 8.71829 | 755 ft | 2 kts | 259° |